Time;durP1;ratioP1;P1;durP2;ratioP2;P2;SDS_P1;SDS_P2;PMS_P1;PMS_P2;Temp;Humidity;BMP_temperature;BMP_pressure;BME280_temperature;BME280_humidity;BME280_pressure;Samples;Min_cycle;Max_cycle;Signal;HPM_P1;HPM_P2
2022/05/14 00:01:06;;;;;;;15.07;10.93;;;;;;;11.92;100.00;95971.97;5051515;28;20060;-75
2022/05/14 00:03:34;;;;;;;16.70;10.73;;;;;;;11.94;100.00;95967.22;5052238;28;20098;-76
2022/05/14 00:06:03;;;;;;;26.80;12.07;;;;;;;11.95;100.00;95963.53;5034440;28;20490;-76
2022/05/14 00:08:30;;;;;;;20.95;11.23;;;;;;;11.98;100.00;95969.31;5032826;28;20032;-76
2022/05/14 00:13:41;;;;;;;20.42;10.35;;;;;;;11.99;100.00;95963.78;5052107;28;20041;-76
2022/05/14 00:16:08;;;;;;;16.65;10.15;;;;;;;12.07;100.00;95962.47;5034472;28;20518;-76
2022/05/14 00:18:35;;;;;;;19.20;10.77;;;;;;;12.06;100.00;95968.78;5051011;28;20613;-75
2022/05/14 00:21:00;;;;;;;19.52;10.52;;;;;;;12.09;100.00;95962.97;5051764;28;20056;-76
2022/05/14 00:23:27;;;;;;;18.52;10.68;;;;;;;12.18;100.00;95964.00;5052153;28;20045;-76
2022/05/14 00:25:53;;;;;;;16.98;10.68;;;;;;;12.16;100.00;95963.50;5050103;28;20051;-76
2022/05/14 00:28:19;;;;;;;17.58;11.02;;;;;;;12.13;100.00;95969.31;5051425;28;20045;-76
2022/05/14 00:30:44;;;;;;;17.50;10.55;;;;;;;12.19;100.00;95962.94;5051094;28;20037;-76
2022/05/14 00:33:10;;;;;;;19.25;10.50;;;;;;;12.29;100.00;95968.19;5052304;28;20087;-76
2022/05/14 00:35:36;;;;;;;21.70;11.00;;;;;;;12.27;100.00;95966.91;5052000;28;20068;-76
2022/05/14 00:38:03;;;;;;;16.77;10.68;;;;;;;12.32;100.00;95966.88;5051738;28;20510;-76
2022/05/14 00:40:33;;;;;;;16.60;10.60;;;;;;;12.33;100.00;95970.31;5050539;28;20079;-76
2022/05/14 00:42:59;;;;;;;27.42;12.57;;;;;;;12.32;100.00;95961.59;5051623;28;20473;-76
2022/05/14 00:45:26;;;;;;;19.83;11.15;;;;;;;12.35;100.00;95962.91;5052015;28;20049;-76
2022/05/14 00:47:58;;;;;;;19.23;11.10;;;;;;;12.36;100.00;95961.84;5050499;28;20637;-76
2022/05/14 00:50:38;;;;;;;20.75;11.50;;;;;;;12.35;100.00;95955.78;5051162;28;20426;-76
2022/05/14 00:53:06;;;;;;;21.17;10.75;;;;;;;12.35;100.00;95960.28;5051708;28;20041;-76
2022/05/14 00:55:32;;;;;;;21.27;11.07;;;;;;;12.33;100.00;95952.63;5050691;28;20126;-76
2022/05/14 00:58:00;;;;;;;24.58;11.43;;;;;;;12.37;100.00;95958.13;5033469;28;20135;-76
2022/05/14 01:00:26;;;;;;;18.25;11.30;;;;;;;12.31;100.00;95952.09;5050141;28;20045;-76
2022/05/14 01:02:52;;;;;;;17.73;10.77;;;;;;;12.34;100.00;95956.03;5051410;28;20086;-76
2022/05/14 01:05:20;;;;;;;18.25;10.55;;;;;;;12.27;100.00;95948.44;5051572;28;20045;-76
2022/05/14 01:07:51;;;;;;;17.15;10.60;;;;;;;12.27;100.00;95943.94;5051484;28;20041;-76
2022/05/14 01:10:20;;;;;;;19.58;10.80;;;;;;;12.18;100.00;95948.16;5050301;28;20335;-76
2022/05/14 01:13:01;;;;;;;19.67;10.50;;;;;;;12.01;100.00;95955.59;5033385;28;20040;-77
2022/05/14 01:15:50;;;;;;;17.77;10.90;;;;;;;11.96;100.00;95949.28;5051384;28;20071;-76
2022/05/14 01:18:20;;;;;;;20.88;10.45;;;;;;;11.88;100.00;95947.16;5050381;28;21964;-76
2022/05/14 01:21:12;;;;;;;20.70;11.20;;;;;;;11.77;100.00;95950.88;5051181;28;20070;-76
2022/05/14 01:26:36;;;;;;;21.15;11.73;;;;;;;11.57;100.00;95941.91;5050231;28;20040;-76
2022/05/14 01:29:09;;;;;;;19.20;11.95;;;;;;;11.56;100.00;95945.59;5050473;28;20123;-76
2022/05/14 01:31:36;;;;;;;23.23;11.07;;;;;;;11.48;100.00;95938.25;5048087;28;20048;-76
2022/05/14 01:34:07;;;;;;;20.15;11.80;;;;;;;11.42;100.00;95941.91;5046366;28;20045;-76
2022/05/14 01:36:33;;;;;;;19.92;11.45;;;;;;;11.31;100.00;95941.13;5045913;28;20045;-76
2022/05/14 01:38:59;;;;;;;21.92;11.73;;;;;;;11.20;100.00;95937.69;5032641;28;20041;-76
2022/05/14 01:41:25;;;;;;;23.48;11.98;;;;;;;11.12;100.00;95940.88;5049987;28;20045;-76
2022/05/14 01:43:51;;;;;;;21.27;11.32;;;;;;;11.04;100.00;95938.75;5050618;28;20041;-75
2022/05/14 01:46:17;;;;;;;23.08;11.77;;;;;;;11.01;100.00;95934.78;5049580;28;20091;-76
2022/05/14 01:48:43;;;;;;;18.90;11.10;;;;;;;11.00;100.00;95940.31;5032639;28;20045;-76
2022/05/14 01:51:09;;;;;;;20.42;11.60;;;;;;;10.89;100.00;95932.38;5048572;28;20043;-76
2022/05/14 01:53:35;;;;;;;24.38;11.68;;;;;;;10.85;100.00;95947.13;5039767;28;20163;-76
2022/05/14 01:56:01;;;;;;;22.85;12.95;;;;;;;10.96;100.00;95939.25;5044939;28;20125;-76
2022/05/14 01:58:36;;;;;;;22.52;12.15;;;;;;;10.99;100.00;95936.09;5049566;28;20133;-76
2022/05/14 02:01:13;;;;;;;20.30;11.82;;;;;;;10.91;100.00;95940.81;5049590;28;20041;-75
2022/05/14 02:03:40;;;;;;;21.73;12.20;;;;;;;10.81;100.00;95951.31;5050158;28;20115;-75
2022/05/14 02:06:07;;;;;;;23.15;12.93;;;;;;;10.74;100.00;95946.28;5050382;28;20040;-76
2022/05/14 02:08:33;;;;;;;20.45;12.05;;;;;;;10.74;100.00;95945.50;5050161;28;20124;-76
2022/05/14 02:10:59;;;;;;;24.27;12.45;;;;;;;10.72;100.00;95939.72;5049149;28;20041;-76
2022/05/14 02:13:25;;;;;;;17.10;11.23;;;;;;;10.86;100.00;95943.44;5048427;28;20456;-75
2022/05/14 02:15:51;;;;;;;23.75;12.07;;;;;;;10.80;100.00;95933.94;5050599;28;20052;-76
2022/05/14 02:18:18;;;;;;;25.02;12.00;;;;;;;10.79;100.00;95937.63;5050595;28;20827;-76
2022/05/14 02:20:43;;;;;;;20.60;12.32;;;;;;;10.77;100.00;95933.69;5049811;28;20049;-76
2022/05/14 02:23:09;;;;;;;25.17;12.05;;;;;;;10.75;100.00;95926.03;5050052;28;20040;-76
2022/05/14 02:25:35;;;;;;;21.13;11.85;;;;;;;10.75;100.00;95931.31;5049008;28;20053;-76
2022/05/14 02:28:01;;;;;;;18.85;10.82;;;;;;;10.73;100.00;95934.19;5028651;28;20510;-76
2022/05/14 02:30:27;;;;;;;18.02;10.48;;;;;;;10.67;100.00;95929.19;5034992;28;20037;-76
2022/05/14 02:32:52;;;;;;;18.88;11.10;;;;;;;10.55;100.00;95921.50;5049981;28;20056;-76
2022/05/14 02:35:18;;;;;;;20.27;10.60;;;;;;;10.54;100.00;95926.00;5049613;28;20041;-76
2022/05/14 02:37:44;;;;;;;19.83;11.30;;;;;;;10.41;100.00;95921.19;5048747;28;20498;-76
2022/05/14 02:40:10;;;;;;;19.10;11.07;;;;;;;10.41;100.00;95926.47;5031709;28;20056;-76
2022/05/14 02:42:36;;;;;;;18.67;11.35;;;;;;;10.37;100.00;95926.19;5049608;28;20048;-76
2022/05/14 02:45:02;;;;;;;22.52;11.30;;;;;;;10.35;100.00;95927.50;5048814;28;20106;-76
2022/05/14 02:47:27;;;;;;;16.73;10.02;;;;;;;10.32;100.00;95917.47;5047561;28;20051;-76
2022/05/14 02:49:53;;;;;;;20.65;9.98;;;;;;;10.22;100.00;95913.72;5049347;28;20426;-76
2022/05/14 02:52:18;;;;;;;18.75;9.77;;;;;;;10.19;100.00;95908.97;5049257;28;20041;-76
2022/05/14 02:54:44;;;;;;;17.67;10.07;;;;;;;10.15;100.00;95913.16;5049659;28;20048;-76
2022/05/14 02:57:10;;;;;;;21.75;10.95;;;;;;;10.06;100.00;95914.72;5048287;28;20040;-76
2022/05/14 02:59:36;;;;;;;22.70;11.25;;;;;;;10.04;100.00;95919.41;5049104;28;20055;-76
2022/05/14 03:02:03;;;;;;;19.25;11.00;;;;;;;9.99;100.00;95922.03;5048430;28;20045;-76
2022/05/14 03:04:31;;;;;;;21.88;11.70;;;;;;;9.88;100.00;95919.34;5049460;28;20414;-76
2022/05/14 03:06:58;;;;;;;22.75;11.15;;;;;;;9.91;100.00;95928.56;5049220;28;20732;-76
2022/05/14 03:09:25;;;;;;;20.00;11.77;;;;;;;9.99;100.00;95935.97;5047833;28;20114;-76
2022/05/14 03:11:51;;;;;;;20.55;11.57;;;;;;;9.89;100.00;95931.44;5048836;28;20044;-76
2022/05/14 03:14:17;;;;;;;21.85;11.50;;;;;;;9.88;100.00;95932.50;5049095;28;20099;-76
2022/05/14 03:16:43;;;;;;;20.17;10.77;;;;;;;9.85;100.00;95929.56;5049015;28;20041;-76
2022/05/14 03:19:10;;;;;;;21.15;11.20;;;;;;;9.87;100.00;95938.78;5047744;28;20056;-76
2022/05/14 03:21:37;;;;;;;19.75;10.60;;;;;;;9.92;100.00;95938.03;5048705;28;20474;-76
2022/05/14 03:24:03;;;;;;;19.27;11.30;;;;;;;9.91;100.00;95940.91;5048218;28;20045;-76
2022/05/14 03:26:29;;;;;;;26.48;11.40;;;;;;;9.90;100.00;95937.50;5048171;28;20045;-76
2022/05/14 03:28:54;;;;;;;20.90;10.82;;;;;;;9.93;100.00;95936.19;5047249;28;20059;-76
2022/05/14 03:31:20;;;;;;;16.05;10.48;;;;;;;9.93;100.00;95941.44;5048018;28;20033;-76
2022/05/14 03:33:46;;;;;;;19.52;10.75;;;;;;;10.01;100.00;95954.13;5049066;28;20674;-76
2022/05/14 03:36:11;;;;;;;18.83;10.48;;;;;;;10.05;100.00;95949.94;5044211;28;20045;-76
2022/05/14 03:38:37;;;;;;;22.15;11.63;;;;;;;10.02;100.00;95945.19;5039458;28;20049;-76
2022/05/14 03:41:04;;;;;;;26.63;11.02;;;;;;;10.02;100.00;95950.44;5047664;28;20053;-76
2022/05/14 03:43:30;;;;;;;18.77;10.65;;;;;;;10.06;100.00;95951.53;5048954;28;20044;-76
2022/05/14 03:45:56;;;;;;;15.77;10.18;;;;;;;10.05;100.00;95939.41;5043897;28;20518;-76
2022/05/14 03:48:22;;;;;;;18.17;9.73;;;;;;;10.01;100.00;95940.97;5011208;28;20041;-76
2022/05/14 03:50:48;;;;;;;17.17;9.77;;;;;;;10.03;100.00;95947.56;5020711;28;20052;-76
2022/05/14 03:53:13;;;;;;;17.60;9.75;;;;;;;9.98;100.00;95946.75;5048639;28;20504;-76
2022/05/14 03:55:40;;;;;;;18.15;10.38;;;;;;;9.99;100.00;95945.69;5030699;28;20036;-76
2022/05/14 03:58:06;;;;;;;18.65;9.70;;;;;;;9.95;100.00;95940.16;5048223;28;20048;-75
2022/05/14 04:00:31;;;;;;;18.17;10.27;;;;;;;9.88;100.00;95940.38;5045575;28;20041;-76
2022/05/14 04:02:57;;;;;;;18.42;10.27;;;;;;;9.89;100.00;95944.56;5048241;28;20045;-76
2022/05/14 04:05:23;;;;;;;18.08;10.48;;;;;;;9.96;100.00;95951.47;5048526;28;20045;-76
2022/05/14 04:07:48;;;;;;;20.17;11.18;;;;;;;9.97;100.00;95953.03;5044074;28;20176;-76
2022/05/14 04:10:18;;;;;;;18.83;11.02;;;;;;;10.05;100.00;95955.19;5043812;28;20429;-76
2022/05/14 04:12:44;;;;;;;17.90;10.52;;;;;;;10.14;100.00;95953.69;5048466;28;20041;-76
2022/05/14 04:15:11;;;;;;;17.02;9.93;;;;;;;10.22;100.00;95952.41;5048383;28;20398;-76
2022/05/14 04:17:36;;;;;;;17.77;10.18;;;;;;;10.23;100.00;95951.34;5048649;28;20042;-76
2022/05/14 04:20:03;;;;;;;16.08;10.10;;;;;;;10.27;100.00;95941.09;5047528;28;20049;-76
2022/05/14 04:22:29;;;;;;;22.27;10.38;;;;;;;10.31;100.00;95950.06;5030366;28;20143;-76
2022/05/14 04:24:54;;;;;;;18.80;11.02;;;;;;;10.33;100.00;95955.84;5047378;28;20045;-76
2022/05/14 04:27:20;;;;;;;18.17;11.63;;;;;;;10.37;100.00;95967.47;5047610;28;20713;-76
2022/05/14 04:29:45;;;;;;;19.48;11.50;;;;;;;10.50;100.00;95966.22;5028042;28;20096;-75
2022/05/14 04:32:11;;;;;;;20.35;11.23;;;;;;;10.58;100.00;95969.16;5047674;28;20037;-76
2022/05/14 04:34:37;;;;;;;20.33;11.43;;;;;;;10.66;100.00;95964.44;5048166;28;20646;-76
2022/05/14 04:37:03;;;;;;;17.92;10.65;;;;;;;10.72;100.00;95979.22;5052025;28;20494;-76
2022/05/14 04:39:34;;;;;;;24.25;11.57;;;;;;;10.86;100.00;95971.59;5051587;28;20045;-76
2022/05/14 04:42:01;;;;;;;21.95;12.27;;;;;;;11.04;100.00;95970.34;5050977;28;20072;-76
2022/05/14 04:44:31;;;;;;;16.95;10.77;;;;;;;11.09;100.00;95979.03;5051530;28;20041;-76
2022/05/14 04:46:57;;;;;;;17.35;11.02;;;;;;;11.21;100.00;95964.84;5051892;28;20044;-76
2022/05/14 04:49:22;;;;;;;21.88;11.50;;;;;;;11.20;100.00;95958.75;5051111;28;20049;-76
2022/05/14 04:51:48;;;;;;;20.13;11.02;;;;;;;11.21;100.00;95960.34;5033453;28;20480;-76
2022/05/14 04:54:15;;;;;;;18.67;10.93;;;;;;;11.26;100.00;95963.00;5051039;28;20041;-76
2022/05/14 04:56:41;;;;;;;21.73;11.30;;;;;;;11.32;100.00;95965.63;5049158;28;20040;-76
2022/05/14 04:59:07;;;;;;;19.05;11.57;;;;;;;11.35;100.00;95975.63;5051660;28;20041;-76
2022/05/14 05:01:33;;;;;;;22.05;12.27;;;;;;;11.51;100.00;95979.88;5050653;28;20045;-76
2022/05/14 05:03:59;;;;;;;21.05;12.05;;;;;;;11.65;100.00;95984.63;5051327;28;20546;-76
2022/05/14 05:06:25;;;;;;;16.17;11.30;;;;;;;11.75;100.00;95989.88;5051256;28;20044;-75
2022/05/14 05:08:52;;;;;;;19.23;11.18;;;;;;;11.82;100.00;95985.13;5051300;28;20041;-75
2022/05/14 05:11:23;;;;;;;23.13;12.38;;;;;;;11.92;100.00;95985.16;5050328;28;20071;-76
2022/05/14 05:13:49;;;;;;;21.38;12.07;;;;;;;12.07;100.00;95975.66;5051600;28;20103;-76
2022/05/14 05:16:15;;;;;;;18.23;11.15;;;;;;;12.21;100.00;95981.16;5030055;28;20056;-76
2022/05/14 05:18:41;;;;;;;20.27;11.40;;;;;;;12.24;100.00;95981.41;5049969;28;20631;-75
2022/05/14 05:21:07;;;;;;;17.48;11.90;;;;;;;12.32;100.00;95981.94;5051023;28;20106;-76
2022/05/14 05:23:34;;;;;;;18.23;12.15;;;;;;;12.44;100.00;95979.75;5049943;28;20049;-76
2022/05/14 05:25:59;;;;;;;16.42;11.05;;;;;;;12.50;100.00;95983.16;5051337;28;20119;-76
2022/05/14 05:28:27;;;;;;;20.63;12.52;;;;;;;12.53;100.00;95978.16;5036750;28;20057;-76
2022/05/14 05:30:53;;;;;;;23.85;12.30;;;;;;;12.70;100.00;95977.84;5046975;28;20045;-76
2022/05/14 05:33:21;;;;;;;17.40;11.85;;;;;;;12.78;100.00;95981.75;5051128;28;20048;-76
2022/05/14 05:35:47;;;;;;;20.67;14.40;;;;;;;12.91;100.00;95978.50;5050762;28;20043;-76
2022/05/14 05:38:13;;;;;;;20.38;13.40;;;;;;;12.97;100.00;95982.72;5045285;28;20060;-76
2022/05/14 05:40:39;;;;;;;21.65;13.38;;;;;;;12.99;100.00;95980.56;5035376;28;20473;-76
2022/05/14 05:43:06;;;;;;;21.35;13.93;;;;;;;13.04;100.00;95984.25;5049513;28;20071;-76
2022/05/14 05:45:32;;;;;;;25.48;15.40;;;;;;;13.14;100.00;95989.47;5049758;28;20041;-76
2022/05/14 05:47:58;;;;;;;24.55;15.20;;;;;;;13.21;100.00;95982.03;5046237;28;20056;-76
2022/05/14 05:50:25;;;;;;;26.10;13.65;;;;;;;13.30;100.00;95993.63;5050414;28;20167;-75
2022/05/14 05:52:52;;;;;;;22.63;14.00;;;;;;;13.50;100.00;96005.13;5050840;28;20044;-76
2022/05/14 05:58:03;;;;;;;22.08;12.82;;;;;;;13.75;100.00;96003.34;5050397;28;20625;-76
2022/05/14 06:00:28;;;;;;;20.63;12.95;;;;;;;13.74;100.00;96009.72;5031910;28;20049;-76
2022/05/14 06:02:55;;;;;;;22.00;13.15;;;;;;;13.78;100.00;96006.25;5051250;28;20048;-76
2022/05/14 06:05:21;;;;;;;20.25;13.02;;;;;;;13.85;100.00;95987.41;5050504;28;20421;-76
2022/05/14 06:07:46;;;;;;;23.08;12.98;;;;;;;13.91;100.00;95990.81;5049589;28;21225;-76
2022/05/14 06:10:15;;;;;;;19.20;12.82;;;;;;;13.99;100.00;95991.00;5050166;28;20044;-76
2022/05/14 06:12:40;;;;;;;22.40;13.20;;;;;;;14.01;100.00;95988.84;5050321;28;20045;-76
2022/05/14 06:15:11;;;;;;;22.48;13.18;;;;;;;14.13;100.00;95995.63;5050157;28;20118;-76
2022/05/14 06:17:37;;;;;;;19.30;12.65;;;;;;;14.03;100.00;95997.28;5048746;28;20045;-76
2022/05/14 06:20:05;;;;;;;20.27;12.27;;;;;;;14.03;100.00;95988.56;5045265;28;20095;-76
2022/05/14 06:22:30;;;;;;;20.52;12.82;;;;;;;14.22;100.00;95993.94;5019084;28;20040;-76
2022/05/14 06:24:56;;;;;;;24.23;12.57;;;;;;;14.28;100.00;95992.84;5049536;28;20663;-75
2022/05/14 06:27:22;;;;;;;20.25;11.88;;;;;;;14.24;100.00;95999.75;5050127;28;20072;-76
2022/05/14 06:29:47;;;;;;;22.67;12.00;;;;;;;14.41;100.00;95995.88;5048891;28;20364;-76
2022/05/14 06:32:13;;;;;;;20.98;12.70;;;;;;;14.53;100.00;96009.50;5049514;28;20533;-76
2022/05/14 06:34:39;;;;;;;23.27;11.82;;;;;;;14.77;100.00;96008.72;5049988;28;20071;-76
2022/05/14 06:37:04;;;;;;;18.33;10.95;;;;;;;14.75;100.00;96001.06;5049990;28;20041;-76
2022/05/14 06:39:30;;;;;;;18.40;10.50;;;;;;;14.68;100.00;96006.72;5048798;28;20037;-76
2022/05/14 06:41:57;;;;;;;20.02;11.40;;;;;;;14.58;100.00;96000.72;5028593;28;20053;-76
2022/05/14 06:44:23;;;;;;;18.63;10.07;;;;;;;14.79;100.00;96002.06;5046292;28;20069;-76
2022/05/14 06:46:48;;;;;;;17.15;9.63;;;;;;;14.90;100.00;95997.44;5049494;28;20068;-74
2022/05/14 06:49:14;;;;;;;17.85;9.45;;;;;;;15.11;100.00;96002.47;5046985;28;20045;-76
2022/05/14 06:51:40;;;;;;;17.38;8.35;;;;;;;15.30;93.40;96005.13;5031631;28;20037;-76
2022/05/14 06:54:08;;;;;;;16.33;8.18;;;;;;;15.25;96.23;95998.03;5049723;28;20418;-76
2022/05/14 06:56:39;;;;;;;17.98;8.73;;;;;;;15.34;92.11;96001.63;5049055;28;20048;-77
2022/05/14 06:59:05;;;;;;;11.93;7.45;;;;;;;15.46;89.39;96003.03;5048442;28;20106;-76
2022/05/14 07:01:31;;;;;;;16.58;7.30;;;;;;;15.54;88.78;96005.84;5048670;28;20048;-76
2022/05/14 07:06:46;;;;;;;13.23;7.60;;;;;;;15.50;86.52;96009.34;5049405;28;20048;-76
2022/05/14 07:09:15;;;;;;;14.75;7.15;;;;;;;15.44;93.44;96008.63;5030635;28;20044;-76
2022/05/14 07:11:42;;;;;;;14.45;6.80;;;;;;;15.59;87.41;96003.09;5049502;28;20075;-76
2022/05/14 07:14:10;;;;;;;11.57;6.20;;;;;;;15.50;87.91;95999.53;5044700;28;20041;-76
2022/05/14 07:16:37;;;;;;;15.73;6.78;;;;;;;15.27;94.20;95995.09;5037117;28;20564;-76
2022/05/14 07:19:06;;;;;;;13.63;5.97;;;;;;;15.16;91.39;95994.47;5047987;28;20045;-76
2022/05/14 07:21:39;;;;;;;13.43;5.70;;;;;;;15.14;91.98;95996.59;5049323;28;20041;-76
2022/05/14 07:24:07;;;;;;;13.73;6.10;;;;;;;15.54;86.17;95999.75;5049489;28;20045;-76
2022/05/14 07:26:39;;;;;;;18.05;6.95;;;;;;;15.49;87.21;96003.25;5048437;28;20045;-76
2022/05/14 07:29:07;;;;;;;11.52;6.50;;;;;;;15.42;86.78;95998.31;5048911;28;20041;-77
2022/05/14 07:31:34;;;;;;;12.23;6.20;;;;;;;15.53;83.26;95998.16;5047820;28;20056;-77
2022/05/14 07:34:00;;;;;;;14.93;6.90;;;;;;;15.52;87.65;95996.59;5045045;28;20601;-77
2022/05/14 07:36:29;;;;;;;18.85;6.90;;;;;;;15.90;77.56;96007.16;5049574;28;20044;-77
2022/05/14 07:38:59;;;;;;;13.93;7.10;;;;;;;15.67;85.36;95999.00;5048884;28;20406;-76
2022/05/14 07:41:25;;;;;;;14.07;6.70;;;;;;;15.69;86.71;96002.16;5048652;28;20045;-76
2022/05/14 07:43:54;;;;;;;15.30;6.60;;;;;;;16.01;78.21;96005.91;5049448;28;20037;-76
2022/05/14 07:46:26;;;;;;;10.82;5.97;;;;;;;16.11;80.53;95992.47;5049506;28;20049;-76
2022/05/14 07:48:55;;;;;;;20.73;7.45;;;;;;;16.01;86.20;95992.63;5047743;28;20041;-77
2022/05/14 07:51:21;;;;;;;17.50;6.70;;;;;;;15.92;87.22;95983.78;5029944;28;20041;-76
2022/05/14 07:53:47;;;;;;;9.23;5.03;;;;;;;16.28;75.60;95991.13;5049163;28;20047;-76
2022/05/14 07:56:12;;;;;;;14.68;5.05;;;;;;;15.98;81.54;95987.13;5048798;28;20503;-76
2022/05/14 07:58:40;;;;;;;9.48;4.65;;;;;;;15.84;79.95;95985.22;5048457;28;20421;-76
2022/05/14 08:01:06;;;;;;;10.50;4.22;;;;;;;16.25;74.18;95999.69;5047962;28;20069;-77
2022/05/14 08:03:32;;;;;;;13.68;4.63;;;;;;;15.84;77.27;95989.75;5048112;28;20217;-76
2022/05/14 08:05:59;;;;;;;12.18;4.47;;;;;;;15.69;83.31;95991.53;5031088;28;20131;-76
2022/05/14 08:08:25;;;;;;;11.23;5.43;;;;;;;15.71;74.97;95994.69;5047880;28;20505;-76
2022/05/14 08:10:51;;;;;;;9.40;4.65;;;;;;;15.91;76.80;95995.47;5049761;28;20037;-76
2022/05/14 08:13:19;;;;;;;12.63;4.00;;;;;;;16.14;65.13;95995.63;5047807;28;20046;-76
2022/05/14 08:15:46;;;;;;;13.77;4.72;;;;;;;16.44;65.44;95989.75;5049344;28;20037;-76
2022/05/14 08:18:12;;;;;;;11.65;4.90;;;;;;;16.70;69.35;95999.88;5033949;28;20045;-77
2022/05/14 08:20:41;;;;;;;9.40;5.28;;;;;;;16.58;71.78;95988.97;5052284;28;20048;-76
2022/05/14 08:25:52;;;;;;;10.77;5.40;;;;;;;16.29;64.96;95997.97;5051207;28;20049;-76
2022/05/14 08:28:19;;;;;;;13.32;4.45;;;;;;;16.35;67.51;95996.81;5052292;28;20045;-76
2022/05/14 08:30:45;;;;;;;15.88;4.68;;;;;;;16.33;67.84;95996.31;5051393;28;20525;-76
2022/05/14 08:33:11;;;;;;;14.73;4.30;;;;;;;16.29;68.39;95990.00;5052545;28;20403;-76
2022/05/14 08:35:38;;;;;;;15.65;4.80;;;;;;;16.35;64.58;95991.50;5051989;28;20037;-77
2022/05/14 08:38:04;;;;;;;12.18;3.95;;;;;;;16.31;65.03;95989.75;5051036;28;20502;-76
2022/05/14 08:40:33;;;;;;;12.38;4.78;;;;;;;16.20;64.88;95986.47;5052126;28;20037;-76
2022/05/14 08:43:08;;;;;;;12.45;4.47;;;;;;;16.17;69.63;95989.72;5052368;28;20053;-76
2022/05/14 08:45:36;;;;;;;13.07;4.53;;;;;;;16.13;68.59;95994.03;5051004;28;20094;-76
2022/05/14 08:48:10;;;;;;;7.63;4.15;;;;;;;16.19;65.07;95987.56;5052149;28;20490;-76
2022/05/14 08:50:38;;;;;;;15.48;5.40;;;;;;;16.23;64.69;95988.53;5052115;28;20048;-76
2022/05/14 08:53:08;;;;;;;10.82;4.50;;;;;;;16.31;62.97;95985.22;5052207;28;20052;-76
2022/05/14 08:55:42;;;;;;;7.80;4.55;;;;;;;16.34;65.13;95987.28;5051205;28;20037;-76
2022/05/14 08:58:27;;;;;;;8.95;5.00;;;;;;;16.79;61.36;95990.13;5051477;28;20045;-76
2022/05/14 09:01:00;;;;;;;12.15;4.68;;;;;;;17.18;60.08;95977.38;5049829;28;20049;-76
2022/05/14 09:03:26;;;;;;;11.80;4.40;;;;;;;17.13;61.32;95980.94;5051945;28;20056;-76
2022/05/14 09:05:57;;;;;;;15.50;5.10;;;;;;;17.36;60.51;95985.50;5047133;28;20037;-76
2022/05/14 09:08:23;;;;;;;11.98;4.63;;;;;;;17.59;58.27;95975.66;5045184;28;20079;-76
2022/05/14 09:11:05;;;;;;;11.35;4.82;;;;;;;17.79;56.82;95980.47;5051899;28;20045;-76
2022/05/14 09:13:41;;;;;;;25.83;4.88;;;;;;;17.99;58.92;95986.44;5050711;28;20091;-76
2022/05/14 09:16:18;;;;;;;11.10;4.65;;;;;;;18.19;57.30;95982.47;5052017;28;20155;-77
2022/05/14 09:18:46;;;;;;;13.25;4.38;;;;;;;18.40;60.32;95984.56;5032678;28;20033;-76
2022/05/14 09:21:22;;;;;;;12.73;4.68;;;;;;;18.28;55.60;95977.16;5051849;28;20041;-76
2022/05/14 09:24:03;;;;;;;14.40;4.25;;;;;;;18.23;55.45;95964.78;5020854;28;20838;-76
2022/05/14 09:26:34;;;;;;;9.05;4.25;;;;;;;18.30;57.76;95970.44;5050909;28;20095;-77
2022/05/14 09:29:12;;;;;;;12.23;4.78;;;;;;;18.31;55.38;95971.22;5051391;28;20112;-76
2022/05/14 09:31:51;;;;;;;18.48;5.00;;;;;;;18.25;56.56;95961.81;5050787;28;20052;-76
2022/05/14 09:34:17;;;;;;;8.48;4.68;;;;;;;18.27;57.13;95970.25;5051307;28;20482;-76
2022/05/14 09:36:48;;;;;;;10.68;5.03;;;;;;;18.15;58.51;95971.63;5051189;28;20045;-76
2022/05/14 09:39:20;;;;;;;12.75;4.72;;;;;;;18.40;56.26;95969.38;5050004;28;20403;-76
2022/05/14 09:41:49;;;;;;;14.93;4.93;;;;;;;18.62;56.44;95965.84;5051615;28;20045;-77
2022/05/14 09:44:21;;;;;;;11.45;5.25;;;;;;;18.73;56.07;95970.88;5033833;28;20129;-77
2022/05/14 09:46:48;;;;;;;11.70;5.53;;;;;;;18.78;55.88;95963.53;5034489;28;20060;-77
2022/05/14 09:49:24;;;;;;;13.32;5.47;;;;;;;18.90;54.39;95970.16;5051514;28;20552;-76
2022/05/14 09:51:55;;;;;;;11.55;5.55;;;;;;;18.81;51.80;95956.78;5051926;28;20045;-76
2022/05/14 09:54:28;;;;;;;11.10;5.22;;;;;;;18.84;52.96;95951.59;5051190;28;20115;-76
2022/05/14 09:57:12;;;;;;;10.90;5.18;;;;;;;19.04;53.24;95954.81;5050743;28;20044;-77
2022/05/14 09:59:51;;;;;;;14.55;5.35;;;;;;;19.18;55.73;95955.44;5050932;28;20048;-76
2022/05/14 10:02:44;;;;;;;10.00;5.07;;;;;;;19.37;54.01;95965.03;5038580;28;20045;-76
2022/05/14 10:05:28;;;;;;;18.00;5.22;;;;;;;19.19;55.05;95962.38;5050934;28;20051;-76
2022/05/14 10:08:23;;;;;;;14.85;5.45;;;;;;;19.20;54.37;95947.91;5051551;28;20033;-76
2022/05/14 10:11:10;;;;;;;15.23;5.80;;;;;;;19.52;52.96;95956.53;5049502;28;20516;-76
2022/05/14 10:13:58;;;;;;;10.32;5.72;;;;;;;19.54;54.76;95951.66;5033527;28;20293;-76
2022/05/14 10:16:28;;;;;;;10.82;5.43;;;;;;;19.99;50.57;95955.06;5050908;28;20112;-76
2022/05/14 10:19:22;;;;;;;11.73;5.30;;;;;;;19.59;53.31;95952.59;5050276;28;20037;-76
2022/05/14 10:22:06;;;;;;;13.23;5.60;;;;;;;19.39;51.02;95946.81;5050641;28;20064;-76
2022/05/14 10:27:44;;;;;;;16.45;6.05;;;;;;;19.13;53.17;95936.91;5049624;28;20564;-76
2022/05/14 10:30:25;;;;;;;11.25;5.63;;;;;;;19.92;53.80;95944.09;5047587;28;20033;-76
2022/05/14 10:33:01;;;;;;;14.95;6.03;;;;;;;20.60;54.00;95936.88;5049674;28;20033;-76
2022/05/14 10:35:46;;;;;;;14.40;6.07;;;;;;;21.09;49.54;95930.31;5049199;28;20041;-76
2022/05/14 10:38:18;;;;;;;12.75;5.55;;;;;;;21.19;48.14;95929.09;5050473;28;20685;-76
2022/05/14 10:40:48;;;;;;;12.90;5.55;;;;;;;20.56;49.31;95930.63;5048846;28;20067;-76
2022/05/14 10:43:20;;;;;;;11.75;5.63;;;;;;;20.32;49.27;95930.44;5049704;28;20505;-76
2022/05/14 10:45:48;;;;;;;9.48;5.43;;;;;;;20.64;46.75;95925.53;5049844;28;20049;-76
2022/05/14 10:48:33;;;;;;;8.95;5.00;;;;;;;21.29;47.87;95929.50;5048985;28;20041;-76
2022/05/14 10:51:01;;;;;;;21.25;9.23;;;;;;;22.51;40.30;95923.97;5028555;28;20041;-77
2022/05/14 10:53:27;;;;;;;10.82;5.80;;;;;;;22.83;39.57;95922.28;5036227;28;20107;-76
2022/05/14 10:55:58;;;;;;;10.02;4.68;;;;;;;22.96;40.10;95912.28;5049808;28;20493;-76
2022/05/14 10:58:45;;;;;;;10.93;4.55;;;;;;;22.84;41.02;95909.63;5048619;28;20041;-76
2022/05/14 11:01:30;;;;;;;10.68;5.35;;;;;;;23.55;40.84;95907.41;5048954;28;20049;-76
2022/05/14 11:03:59;;;;;;;13.85;5.57;;;;;;;23.64;41.95;95905.34;5048233;28;20052;-76
2022/05/14 11:06:33;;;;;;;14.15;5.40;;;;;;;23.51;40.67;95912.69;5049675;28;20495;-76
2022/05/14 11:08:59;;;;;;;17.23;6.35;;;;;;;23.11;41.32;95902.75;5048661;28;20037;-76
2022/05/14 11:11:27;;;;;;;17.45;5.80;;;;;;;22.85;41.76;95897.78;5049633;28;20384;-76
2022/05/14 11:14:02;;;;;;;13.90;5.75;;;;;;;23.89;38.95;95910.59;5049303;28;20418;-76
2022/05/14 11:16:39;;;;;;;9.13;4.55;;;;;;;24.64;36.02;95903.56;5049495;28;20045;-76
2022/05/14 11:19:05;;;;;;;14.32;5.47;;;;;;;24.75;38.68;95900.31;5048846;28;20049;-76
2022/05/14 11:21:45;;;;;;;11.98;5.32;;;;;;;24.78;37.87;95895.00;5031661;28;20045;-76
2022/05/14 11:24:13;;;;;;;9.52;5.00;;;;;;;23.79;39.97;95897.63;5031716;28;20116;-76
2022/05/14 11:26:50;;;;;;;11.85;4.95;;;;;;;24.39;38.83;95893.00;5030323;28;20037;-76
2022/05/14 11:29:23;;;;;;;9.25;4.40;;;;;;;24.73;37.07;95890.69;5049570;28;20175;-76
2022/05/14 11:31:54;;;;;;;11.52;4.72;;;;;;;25.89;35.21;95887.53;5044487;28;20116;-76
2022/05/14 11:34:23;;;;;;;13.15;5.50;;;;;;;26.72;33.01;95886.91;5047967;28;20037;-76
2022/05/14 11:36:52;;;;;;;12.73;5.07;;;;;;;26.21;33.46;95890.00;5049281;28;20041;-76
2022/05/14 11:39:21;;;;;;;12.07;4.22;;;;;;;25.94;35.66;95884.53;5048712;28;20041;-76
2022/05/14 11:41:48;;;;;;;9.23;4.93;;;;;;;25.98;34.32;95885.38;5049819;28;20127;-76